Time;durP1;ratioP1;P1;durP2;ratioP2;P2;SDS_P1;SDS_P2;PMS_P1;PMS_P2;Temp;Humidity;BMP_temperature;BMP_pressure;BME280_temperature;BME280_humidity;BME280_pressure;Samples;Min_cycle;Max_cycle;Signal;HPM_P1;HPM_P2
2022/09/18 06:03:13;;;;;;;1.00;0.90;;;;;;;;;;6243038;22;20031;-82
2022/09/18 06:05:39;;;;;;;1.08;1.08;;;;;;;;;;6241770;23;20091;-83
2022/09/18 06:08:07;;;;;;;1.20;1.10;;;;;;;;;;6220687;23;20086;-80
2022/09/18 06:10:38;;;;;;;0.70;0.70;;;;;;;;;;6247430;23;20062;-82
2022/09/18 06:13:04;;;;;;;2.67;1.02;;;;;;;;;;6220331;23;20422;-84
2022/09/18 06:15:30;;;;;;;0.80;0.80;;;;;;;;;;6221964;23;20016;-82
2022/09/18 06:17:56;;;;;;;1.10;1.00;;;;;;;;;;6223593;23;20035;-83
2022/09/18 06:20:21;;;;;;;1.73;0.90;;;;;;;;;;6225722;23;20004;-85
2022/09/18 06:22:47;;;;;;;0.80;0.80;;;;;;;;;;6249471;22;20319;-90
2022/09/18 06:25:12;;;;;;;1.25;1.00;;;;;;;;;;6247922;23;20003;-82
2022/09/18 06:27:38;;;;;;;1.20;0.70;;;;;;;;;;6220861;23;20402;-82
2022/09/18 06:30:04;;;;;;;1.60;0.90;;;;;;;;;;6247706;23;20004;-83
2022/09/18 06:32:30;;;;;;;1.40;0.90;;;;;;;;;;6247600;22;19992;-89
2022/09/18 06:34:55;;;;;;;1.30;0.90;;;;;;;;;;6247901;23;20011;-91
2022/09/18 06:37:21;;;;;;;1.42;1.10;;;;;;;;;;6221878;23;20008;-84
2022/09/18 06:39:46;;;;;;;1.15;1.05;;;;;;;;;;6250727;23;20419;-84
2022/09/18 06:42:12;;;;;;;0.80;0.80;;;;;;;;;;6248222;22;20011;-91
2022/09/18 06:44:37;;;;;;;0.77;0.77;;;;;;;;;;6220832;23;20027;-88
2022/09/18 06:47:03;;;;;;;0.70;0.70;;;;;;;;;;6247612;23;20335;-83
2022/09/18 06:49:29;;;;;;;0.70;0.70;;;;;;;;;;6220806;23;20004;-91
2022/09/18 06:51:54;;;;;;;0.70;0.70;;;;;;;;;;6220578;23;20015;-90
2022/09/18 06:54:20;;;;;;;2.22;0.88;;;;;;;;;;6247004;22;20015;-83
2022/09/18 06:56:46;;;;;;;0.90;0.80;;;;;;;;;;6247069;23;20008;-82
2022/09/18 06:59:12;;;;;;;0.93;0.85;;;;;;;;;;6246981;23;20000;-83
2022/09/18 07:01:37;;;;;;;1.00;1.00;;;;;;;;;;6221928;23;20087;-82
2022/09/18 07:04:03;;;;;;;1.15;1.05;;;;;;;;;;6247008;22;20065;-82
2022/09/18 07:06:29;;;;;;;1.05;0.95;;;;;;;;;;6245945;23;20004;-89
2022/09/18 07:08:54;;;;;;;0.60;0.60;;;;;;;;;;6246679;22;20088;-84
2022/09/18 07:11:20;;;;;;;0.65;0.65;;;;;;;;;;6246040;22;20004;-86
2022/09/18 07:13:46;;;;;;;0.70;0.70;;;;;;;;;;6246587;22;20074;-83
2022/09/18 07:16:12;;;;;;;0.88;0.80;;;;;;;;;;6246973;22;20004;-85
2022/09/18 07:18:38;;;;;;;1.40;0.88;;;;;;;;;;6246895;22;20008;-82
2022/09/18 07:21:04;;;;;;;1.00;0.85;;;;;;;;;;6246561;23;20485;-84
2022/09/18 07:23:31;;;;;;;0.90;0.90;;;;;;;;;;6246867;22;20011;-87
2022/09/18 07:26:01;;;;;;;0.93;0.60;;;;;;;;;;6246613;22;20010;-83
2022/09/18 07:28:27;;;;;;;0.95;0.90;;;;;;;;;;6245235;23;20008;-83
2022/09/18 07:30:52;;;;;;;1.30;0.80;;;;;;;;;;6246604;22;20374;-83
2022/09/18 07:33:18;;;;;;;1.63;0.77;;;;;;;;;;6246602;22;20439;-82
2022/09/18 07:35:44;;;;;;;0.70;0.68;;;;;;;;;;6244930;23;20008;-86
2022/09/18 07:38:10;;;;;;;0.88;0.77;;;;;;;;;;6246893;22;20004;-83
2022/09/18 07:40:36;;;;;;;0.70;0.70;;;;;;;;;;6245071;23;20015;-86
2022/09/18 07:43:04;;;;;;;1.02;0.55;;;;;;;;;;6246589;22;20014;-81
2022/09/18 07:45:30;;;;;;;2.88;0.80;;;;;;;;;;6245110;23;20015;-84
2022/09/18 07:47:56;;;;;;;0.75;0.75;;;;;;;;;;6246559;22;20001;-85
2022/09/18 07:50:22;;;;;;;0.82;0.80;;;;;;;;;;6246844;22;20004;-84
2022/09/18 07:52:53;;;;;;;0.60;0.60;;;;;;;;;;6246521;22;20000;-84
2022/09/18 07:55:19;;;;;;;0.95;0.70;;;;;;;;;;6246583;22;20083;-83
2022/09/18 07:57:47;;;;;;;0.68;0.68;;;;;;;;;;6248259;22;20004;-89
2022/09/18 08:00:14;;;;;;;0.52;0.52;;;;;;;;;;6247177;23;20031;-84
2022/09/18 08:02:40;;;;;;;1.30;0.80;;;;;;;;;;6248466;22;20133;-84
2022/09/18 08:05:06;;;;;;;0.50;0.50;;;;;;;;;;6248793;23;20008;-81
2022/09/18 08:07:31;;;;;;;0.73;0.73;;;;;;;;;;6248407;23;20017;-82
2022/09/18 08:09:57;;;;;;;0.95;0.90;;;;;;;;;;6248585;23;20335;-82
2022/09/18 08:12:23;;;;;;;0.60;0.60;;;;;;;;;;6248531;22;20004;-82
2022/09/18 08:14:48;;;;;;;1.15;0.60;;;;;;;;;;6248325;23;20008;-82
2022/09/18 08:17:14;;;;;;;0.70;0.70;;;;;;;;;;6221535;23;20083;-84
2022/09/18 08:19:39;;;;;;;0.70;0.63;;;;;;;;;;6248379;23;20007;-86
2022/09/18 08:22:05;;;;;;;0.65;0.63;;;;;;;;;;6221493;22;20004;-83
2022/09/18 08:24:30;;;;;;;0.60;0.60;;;;;;;;;;6248421;23;20012;-86
2022/09/18 08:27:02;;;;;;;0.50;0.50;;;;;;;;;;6248555;23;20075;-84
2022/09/18 08:29:30;;;;;;;0.55;0.55;;;;;;;;;;6221658;23;20040;-82
2022/09/18 08:31:56;;;;;;;0.57;0.57;;;;;;;;;;6248294;23;20339;-86
2022/09/18 13:18:03;;;;;;;1.40;0.90;;;;;;;;;;6216893;23;19969;-83
2022/09/18 13:20:39;;;;;;;0.88;0.88;;;;;;;;;;6217042;23;20042;-81
2022/09/18 13:23:05;;;;;;;0.65;0.65;;;;;;;;;;6230861;23;20079;-81
2022/09/18 13:25:37;;;;;;;0.80;0.80;;;;;;;;;;6247456;23;20024;-81
2022/09/18 13:28:10;;;;;;;0.80;0.73;;;;;;;;;;6247370;23;20066;-82
2022/09/18 13:30:36;;;;;;;0.70;0.70;;;;;;;;;;6247358;23;19996;-82
2022/09/18 13:33:02;;;;;;;1.15;0.47;;;;;;;;;;6246990;23;20054;-82
2022/09/18 13:35:36;;;;;;;1.30;0.60;;;;;;;;;;6247194;23;20027;-82
2022/09/18 13:38:25;;;;;;;0.85;0.55;;;;;;;;;;6220602;23;20085;-82
2022/09/18 13:41:02;;;;;;;0.68;0.50;;;;;;;;;;6247217;23;20000;-82
2022/09/18 13:43:27;;;;;;;0.80;0.68;;;;;;;;;;6247141;23;20423;-83
2022/09/18 13:45:55;;;;;;;0.65;0.65;;;;;;;;;;6247263;23;20050;-82
2022/09/18 13:48:34;;;;;;;1.02;0.52;;;;;;;;;;6247282;23;20004;-82
2022/09/18 13:51:06;;;;;;;2.10;0.50;;;;;;;;;;6220216;23;20011;-82
2022/09/18 13:53:35;;;;;;;0.57;0.57;;;;;;;;;;6219778;23;20090;-81
2022/09/18 13:56:02;;;;;;;0.82;0.60;;;;;;;;;;6220101;23;20078;-82
2022/09/18 13:58:31;;;;;;;1.10;1.00;;;;;;;;;;6247071;23;20095;-83
2022/09/18 14:00:58;;;;;;;0.60;0.60;;;;;;;;;;6247229;23;20010;-82
2022/09/18 14:03:23;;;;;;;0.75;0.73;;;;;;;;;;6247106;23;20000;-82
2022/09/18 14:05:49;;;;;;;0.60;0.57;;;;;;;;;;6246914;23;20082;-84
2022/09/18 14:08:18;;;;;;;0.98;0.85;;;;;;;;;;6247004;23;20443;-82
2022/09/18 14:10:46;;;;;;;1.47;0.70;;;;;;;;;;6247081;23;20004;-81
2022/09/18 14:13:18;;;;;;;0.95;0.80;;;;;;;;;;6246949;23;20007;-81
2022/09/18 14:16:08;;;;;;;0.82;0.80;;;;;;;;;;6246612;23;20011;-81
2022/09/18 14:18:43;;;;;;;0.52;0.52;;;;;;;;;;6247247;23;20419;-82
2022/09/18 14:21:25;;;;;;;1.27;0.60;;;;;;;;;;6247323;23;20368;-83
2022/09/18 17:09:59;;;;;;;1.00;0.90;;;;;;;;;;6290034;22;20012;-81
2022/09/18 17:12:24;;;;;;;1.25;1.00;;;;;;;;;;6278597;22;20043;-82
2022/09/18 17:14:50;;;;;;;1.30;1.20;;;;;;;;;;6276716;22;20378;-81
2022/09/18 17:17:16;;;;;;;3.42;1.40;;;;;;;;;;6248239;23;20000;-83
2022/09/18 17:19:41;;;;;;;1.30;1.20;;;;;;;;;;6248344;23;20011;-82
2022/09/18 17:22:07;;;;;;;1.30;1.20;;;;;;;;;;6247751;23;20078;-82
2022/09/18 17:24:33;;;;;;;1.40;1.30;;;;;;;;;;6248235;23;20003;-83
2022/09/18 17:26:59;;;;;;;1.75;1.20;;;;;;;;;;6247386;22;20301;-80
2022/09/18 17:29:25;;;;;;;1.38;1.27;;;;;;;;;;6247946;23;20076;-80
2022/09/18 17:31:51;;;;;;;1.23;1.13;;;;;;;;;;6247923;23;19996;-79
2022/09/18 17:34:17;;;;;;;2.20;1.15;;;;;;;;;;6247707;23;20004;-80
2022/09/18 17:36:44;;;;;;;1.50;1.25;;;;;;;;;;6247823;22;20070;-80
2022/09/18 17:39:10;;;;;;;0.82;0.82;;;;;;;;;;6247941;23;20000;-84
2022/09/18 17:41:37;;;;;;;1.13;1.02;;;;;;;;;;6247313;23;20008;-84
2022/09/18 17:44:03;;;;;;;1.23;1.00;;;;;;;;;;6247965;23;19996;-84
2022/09/18 17:46:28;;;;;;;1.98;1.00;;;;;;;;;;6247235;22;20001;-84
2022/09/18 17:48:56;;;;;;;1.65;1.05;;;;;;;;;;6247408;23;20000;-85
2022/09/18 17:51:23;;;;;;;1.20;1.10;;;;;;;;;;6247422;23;19999;-85
2022/09/18 17:53:49;;;;;;;1.75;1.10;;;;;;;;;;6247132;23;20011;-84
2022/09/18 17:56:17;;;;;;;1.30;1.20;;;;;;;;;;6220308;23;20011;-80
2022/09/18 17:58:44;;;;;;;1.10;0.93;;;;;;;;;;6247192;23;20071;-85
2022/09/18 18:01:16;;;;;;;1.63;1.10;;;;;;;;;;6247424;23;20328;-83
2022/09/18 18:03:42;;;;;;;1.80;1.70;;;;;;;;;;6220192;23;20372;-83
